createdAt,value
2019-05-14T00:03:43.855Z,102979.41
2019-05-14T00:08:49.292Z,102972.17
2019-05-14T00:13:54.744Z,102972.19
2019-05-14T00:19:01.672Z,102979.70
2019-05-14T00:24:07.189Z,102981.31
2019-05-14T00:29:12.624Z,102981.26
2019-05-14T00:34:18.054Z,102980.97
2019-05-14T00:39:23.481Z,102977.92
2019-05-14T00:44:28.940Z,102975.20
2019-05-14T00:49:34.404Z,102974.81
2019-05-14T00:54:41.686Z,102969.61
2019-05-14T00:59:47.020Z,102967.20
2019-05-14T01:04:52.486Z,102969.11
2019-05-14T01:09:57.987Z,102967.39
2019-05-14T01:15:10.255Z,102963.47
2019-05-14T01:20:12.397Z,102966.88
2019-05-14T01:25:17.942Z,102967.11
2019-05-14T01:30:23.371Z,102982.95
2019-05-14T01:35:28.812Z,102985.72
2019-05-14T01:40:34.296Z,102987.38
2019-05-14T01:45:41.688Z,102981.23
2019-05-14T01:50:47.029Z,102974.96
2019-05-14T01:55:52.474Z,102975.20
2019-05-14T02:00:57.912Z,102976.27
2019-05-14T02:06:03.326Z,102973.77
2019-05-14T02:11:08.792Z,102972.30
2019-05-14T02:16:14.238Z,102963.79
2019-05-14T02:21:19.652Z,102952.69
2019-05-14T02:26:25.144Z,102951.63
2019-05-14T02:31:30.682Z,102941.28
2019-05-14T02:36:36.165Z,102942.41
2019-05-14T02:41:41.644Z,102948.66
2019-05-14T02:46:50.249Z,102945.55
2019-05-14T02:51:54.233Z,102953.71
2019-05-14T02:57:00.255Z,102951.63
2019-05-14T03:02:05.798Z,102948.41
2019-05-14T03:07:11.395Z,102947.91
2019-05-14T03:12:19.454Z,102945.54
2019-05-14T03:17:24.088Z,102945.22
2019-05-14T03:22:42.779Z,102947.67
2019-05-14T03:27:40.106Z,102953.92
2019-05-14T03:32:44.169Z,102959.52
2019-05-14T03:37:50.021Z,102965.05
2019-05-14T03:42:55.545Z,102975.05
2019-05-14T03:48:00.991Z,102969.48
2019-05-14T03:53:09.847Z,102967.72
2019-05-14T03:58:13.660Z,102963.36
2019-05-14T04:03:19.930Z,102963.78
2019-05-14T04:08:29.010Z,102962.39
2019-05-14T04:13:33.834Z,102957.80
2019-05-14T04:18:40.607Z,102960.50
2019-05-14T04:23:51.210Z,102955.08
2019-05-14T04:29:00.224Z,102952.30
2019-05-14T04:34:04.552Z,102965.24
2019-05-14T04:39:10.374Z,102963.83
2019-05-14T04:44:18.940Z,102967.85
2019-05-14T04:49:23.288Z,102979.63
2019-05-14T04:54:30.136Z,102971.25
2019-05-14T04:59:39.347Z,102971.66
2019-05-14T05:04:43.140Z,102967.70
2019-05-14T05:09:50.133Z,102967.25
2019-05-14T05:14:58.565Z,102969.22
2019-05-14T05:20:03.252Z,102969.30
2019-05-14T05:25:08.859Z,102960.44
2019-05-14T05:30:14.294Z,102952.16
2019-05-14T05:35:19.899Z,102934.87
2019-05-14T05:40:25.349Z,102927.87
2019-05-14T05:45:30.826Z,102917.53
2019-05-14T05:50:38.744Z,102904.44
2019-05-14T05:55:43.553Z,102900.66
2019-05-14T06:00:49.758Z,102903.80
2019-05-14T06:05:55.459Z,102888.11
2019-05-14T06:11:00.990Z,102871.23
2019-05-14T06:16:09.204Z,102877.10
2019-05-14T06:21:15.504Z,102872.09
2019-05-14T06:26:21.170Z,102862.13
2019-05-14T06:31:29.027Z,102849.30
2019-05-14T06:36:34.138Z,102854.64
2019-05-14T06:41:42.803Z,102849.01
2019-05-14T06:46:52.378Z,102851.15
2019-05-14T06:51:59.049Z,102856.56
2019-05-14T06:57:05.137Z,102846.75
2019-05-14T07:02:10.907Z,102834.83
2019-05-14T07:07:16.779Z,102825.07
2019-05-14T07:12:24.807Z,102809.07
2019-05-14T07:17:38.405Z,102806.91
2019-05-14T07:22:48.457Z,102797.40
2019-05-14T07:28:02.190Z,102792.19
2019-05-14T07:33:13.696Z,102778.67
2019-05-14T07:38:29.352Z,102763.09
2019-05-14T07:43:41.832Z,102774.78
2019-05-14T07:49:04.412Z,102761.13
2019-05-14T07:54:01.683Z,102760.83
2019-05-14T07:59:09.047Z,102751.61
2019-05-14T08:04:19.809Z,102742.00
2019-05-14T08:09:28.232Z,102741.87
2019-05-14T08:14:46.361Z,102741.05
2019-05-14T08:19:44.791Z,102731.11
2019-05-14T08:24:51.541Z,102727.89
2019-05-14T08:29:58.924Z,102725.54
2019-05-14T08:35:05.152Z,102722.20
2019-05-14T08:40:19.046Z,102716.33
2019-05-14T08:45:30.339Z,102714.81
2019-05-14T08:50:38.802Z,102705.47
2019-05-14T08:55:55.012Z,102700.19
2019-05-14T09:01:00.721Z,102700.87
2019-05-14T09:06:09.822Z,102687.48
2019-05-14T09:11:22.980Z,102693.31
2019-05-14T09:16:41.743Z,102694.76
2019-05-14T09:21:39.535Z,102681.08
2019-05-14T09:26:48.232Z,102674.37
2019-05-14T09:31:58.953Z,102678.77
2019-05-14T09:37:08.613Z,102652.08
2019-05-14T09:42:14.473Z,102644.84
2019-05-14T09:47:20.290Z,102641.84
2019-05-14T09:52:29.349Z,102649.05
2019-05-14T09:57:38.795Z,102663.19
2019-05-14T10:02:44.591Z,102669.14
2019-05-14T10:07:50.409Z,102673.52
2019-05-14T10:12:57.259Z,102667.72
2019-05-14T10:18:05.362Z,102673.41
2019-05-14T10:23:12.421Z,102675.98
2019-05-14T10:28:19.268Z,102677.77
2019-05-14T10:33:24.965Z,102671.91
2019-05-14T10:38:32.580Z,102673.20
2019-05-14T10:43:42.572Z,102663.88
2019-05-14T10:48:52.060Z,102672.11
2019-05-14T10:54:16.936Z,102659.51
2019-05-14T10:59:11.958Z,102651.38
2019-05-14T11:04:19.175Z,102652.88
2019-05-14T11:09:28.423Z,102639.58
2019-05-14T11:14:33.393Z,102624.92
2019-05-14T11:19:39.124Z,102599.13
2019-05-14T11:24:44.911Z,102589.66
2019-05-14T11:29:50.422Z,102595.59
2019-05-14T11:34:55.968Z,102586.94
2019-05-14T11:40:03.587Z,102588.36
2019-05-14T11:45:09.234Z,102583.41
2019-05-14T11:50:15.319Z,102575.61
2019-05-14T11:55:20.772Z,102574.25
2019-05-14T12:00:29.295Z,102574.27
2019-05-14T12:05:35.456Z,102555.56
2019-05-14T12:10:41.019Z,102543.74
2019-05-14T12:15:48.564Z,102540.59
2019-05-14T12:20:53.712Z,102523.76
2019-05-14T12:25:59.288Z,102520.27
2019-05-14T12:31:04.870Z,102519.52
2019-05-14T12:36:10.658Z,102511.21
2019-05-14T12:41:19.053Z,102505.02
2019-05-14T12:46:23.318Z,102488.11
2019-05-14T12:51:28.738Z,102487.92
2019-05-14T12:56:34.208Z,102484.22
2019-05-14T13:01:39.635Z,102472.42
2019-05-14T13:06:45.070Z,102481.22
2019-05-14T13:11:50.835Z,102480.63
2019-05-14T13:16:56.280Z,102473.05
2019-05-14T13:22:13.126Z,102456.99
2019-05-14T13:27:09.651Z,102451.34
2019-05-14T13:32:15.189Z,102441.13
2019-05-14T13:37:20.665Z,102437.80
2019-05-14T13:42:26.123Z,102441.09
2019-05-14T13:47:31.673Z,102446.66
2019-05-14T13:52:40.365Z,102424.97
2019-05-14T13:57:44.511Z,102417.78
2019-05-14T14:02:49.933Z,102415.06
2019-05-14T14:07:55.359Z,102412.41
2019-05-14T14:13:01.202Z,102403.25
2019-05-14T14:18:06.814Z,102392.73
2019-05-14T14:23:21.978Z,102392.63
2019-05-14T14:28:19.886Z,102387.31
2019-05-14T14:33:25.492Z,102375.20
2019-05-14T14:38:31.002Z,102364.66
2019-05-14T14:43:42.368Z,102364.45
2019-05-14T14:48:43.871Z,102355.64
2019-05-14T14:53:59.084Z,102353.20
2019-05-14T14:58:56.695Z,102363.77
2019-05-14T15:04:02.170Z,102350.31
2019-05-14T15:09:09.778Z,102357.06
2019-05-14T15:14:15.318Z,102347.19
2019-05-14T15:19:20.775Z,102335.59
2019-05-14T15:24:26.250Z,102342.74
2019-05-14T15:29:31.707Z,102326.34
2019-05-14T15:34:37.187Z,102326.38
2019-05-14T15:39:42.887Z,102329.09
2019-05-14T15:44:55.364Z,102322.59
2019-05-14T15:49:55.748Z,102315.03
2019-05-14T15:55:01.565Z,102316.70
2019-05-14T16:00:08.718Z,102314.05
2019-05-14T16:05:14.379Z,102300.44
2019-05-14T16:10:21.730Z,102297.42
2019-05-14T16:15:28.133Z,102284.62
2019-05-14T16:20:33.753Z,102284.52
2019-05-14T16:25:39.328Z,102274.08
2019-05-14T16:30:44.862Z,102293.08
2019-05-14T16:35:50.292Z,102298.45
2019-05-14T16:40:55.736Z,102298.80
2019-05-14T16:46:01.475Z,102298.39
2019-05-14T16:51:08.915Z,102302.58
2019-05-14T16:56:14.117Z,102300.39
2019-05-14T17:01:19.555Z,102306.86
2019-05-14T17:06:25.093Z,102302.77
2019-05-14T17:11:30.604Z,102307.28
2019-05-14T17:16:36.334Z,102308.63
2019-05-14T17:21:42.050Z,102309.28
2019-05-14T17:26:48.906Z,102307.75
2019-05-14T17:31:54.431Z,102311.14
2019-05-14T17:36:59.896Z,102312.86
2019-05-14T17:42:05.368Z,102321.84
2019-05-14T17:47:10.847Z,102317.80
2019-05-14T17:52:21.884Z,102316.82
2019-05-14T17:57:25.335Z,102312.02
2019-05-14T18:02:30.859Z,102318.97
2019-05-14T18:07:36.384Z,102307.98
2019-05-14T18:12:42.044Z,102314.37
2019-05-14T18:17:49.549Z,102307.56
2019-05-14T18:22:54.734Z,102305.20
2019-05-14T18:28:00.182Z,102309.22
2019-05-14T18:33:07.846Z,102308.11
2019-05-14T18:38:12.753Z,102305.08
2019-05-14T18:43:18.812Z,102308.86
2019-05-14T18:48:24.323Z,102312.55
2019-05-14T18:53:29.783Z,102311.52
2019-05-14T18:58:35.295Z,102312.58
2019-05-14T19:03:40.855Z,102318.07
2019-05-14T19:08:48.316Z,102311.72
2019-05-14T19:13:53.552Z,102316.67
2019-05-14T19:18:59.001Z,102321.13
2019-05-14T19:24:04.466Z,102327.50
2019-05-14T19:29:09.960Z,102325.88
2019-05-14T19:34:15.390Z,102321.72
2019-05-14T19:39:21.177Z,102323.51
2019-05-14T19:44:26.726Z,102322.58
2019-05-14T19:49:32.261Z,102326.75
2019-05-14T19:54:38.432Z,102329.02
2019-05-14T19:59:43.990Z,102329.53
2019-05-14T20:04:49.488Z,102338.33
2019-05-14T20:09:54.909Z,102330.72
2019-05-14T20:15:00.365Z,102326.70
2019-05-14T20:20:08.619Z,102323.91
2019-05-14T20:25:13.626Z,102326.31
2019-05-14T20:30:19.445Z,102324.55
2019-05-14T20:35:31.712Z,102325.81
2019-05-14T20:40:32.085Z,102318.89
2019-05-14T20:45:39.151Z,102303.96
2019-05-14T20:50:44.741Z,102311.19
2019-05-14T20:55:50.193Z,102304.16
2019-05-14T21:00:55.613Z,102310.64
2019-05-14T21:06:01.051Z,102309.23
2019-05-14T21:11:08.211Z,102308.56
2019-05-14T21:16:13.621Z,102312.95
2019-05-14T21:21:19.076Z,102311.63
2019-05-14T21:26:24.643Z,102306.98
2019-05-14T21:31:30.436Z,102313.98
2019-05-14T21:36:36.271Z,102315.35
2019-05-14T21:41:41.955Z,102311.72
2019-05-14T21:46:48.337Z,102312.02
2019-05-14T21:51:58.030Z,102308.08
2019-05-14T21:57:11.278Z,102309.23
2019-05-14T22:02:24.294Z,102304.91
2019-05-14T22:07:25.713Z,102297.30
2019-05-14T22:12:34.563Z,102291.85
2019-05-14T22:17:45.017Z,102290.59
2019-05-14T22:23:15.358Z,102289.75
2019-05-14T22:28:22.305Z,102286.66
2019-05-14T22:33:31.440Z,102288.25
2019-05-14T22:38:45.031Z,102290.61
2019-05-14T22:44:00.036Z,102289.09
2019-05-14T22:49:14.701Z,102286.50
2019-05-14T22:54:24.084Z,102287.51
2019-05-14T22:59:32.173Z,102288.70
2019-05-14T23:04:40.357Z,102278.47
2019-05-14T23:09:48.264Z,102286.20
2019-05-14T23:53:56.432Z,102272.12
